sensor_id;sensor_type;location;lat;lon;timestamp;P1;durP1;ratioP1;P2;durP2;ratioP2
36575;SDS011;45700;50.930;5.168;2023-05-27T00:01:16;13.20;;;3.00;;
36575;SDS011;45700;50.930;5.168;2023-05-27T00:05:17;16.98;;;2.97;;
36575;SDS011;45700;50.930;5.168;2023-05-27T00:09:18;16.80;;;2.75;;
36575;SDS011;45700;50.930;5.168;2023-05-27T00:13:20;14.45;;;2.90;;
36575;SDS011;45700;50.930;5.168;2023-05-27T00:17:21;14.20;;;3.08;;
36575;SDS011;45700;50.930;5.168;2023-05-27T00:21:22;14.27;;;2.60;;
36575;SDS011;45700;50.930;5.168;2023-05-27T00:25:23;10.63;;;2.90;;
36575;SDS011;45700;50.930;5.168;2023-05-27T00:29:24;8.30;;;2.63;;
36575;SDS011;45700;50.930;5.168;2023-05-27T00:33:25;18.33;;;2.95;;
36575;SDS011;45700;50.930;5.168;2023-05-27T00:37:26;10.38;;;2.53;;
36575;SDS011;45700;50.930;5.168;2023-05-27T00:41:27;14.25;;;3.22;;
36575;SDS011;45700;50.930;5.168;2023-05-27T00:45:28;13.43;;;2.55;;
36575;SDS011;45700;50.930;5.168;2023-05-27T00:49:30;17.60;;;3.22;;
36575;SDS011;45700;50.930;5.168;2023-05-27T00:53:34;12.38;;;3.03;;
36575;SDS011;45700;50.930;5.168;2023-05-27T00:57:37;11.45;;;3.17;;
36575;SDS011;45700;50.930;5.168;2023-05-27T01:01:38;20.67;;;3.40;;
36575;SDS011;45700;50.930;5.168;2023-05-27T01:05:43;17.20;;;3.05;;
36575;SDS011;45700;50.930;5.168;2023-05-27T01:13:52;15.75;;;2.92;;
36575;SDS011;45700;50.930;5.168;2023-05-27T01:17:56;22.52;;;2.72;;
36575;SDS011;45700;50.930;5.168;2023-05-27T01:22:01;10.52;;;2.88;;
36575;SDS011;45700;50.930;5.168;2023-05-27T01:26:02;15.32;;;3.65;;
36575;SDS011;45700;50.930;5.168;2023-05-27T01:30:03;15.35;;;3.30;;
36575;SDS011;45700;50.930;5.168;2023-05-27T01:34:07;14.85;;;3.22;;
36575;SDS011;45700;50.930;5.168;2023-05-27T01:38:09;15.48;;;3.20;;
36575;SDS011;45700;50.930;5.168;2023-05-27T01:42:10;14.57;;;2.88;;
36575;SDS011;45700;50.930;5.168;2023-05-27T01:46:12;14.50;;;3.30;;
36575;SDS011;45700;50.930;5.168;2023-05-27T01:50:13;11.98;;;2.88;;
36575;SDS011;45700;50.930;5.168;2023-05-27T01:54:14;13.27;;;3.53;;
36575;SDS011;45700;50.930;5.168;2023-05-27T01:58:15;12.00;;;3.42;;
36575;SDS011;45700;50.930;5.168;2023-05-27T02:02:16;14.25;;;4.47;;
36575;SDS011;45700;50.930;5.168;2023-05-27T02:06:17;9.60;;;3.13;;
36575;SDS011;45700;50.930;5.168;2023-05-27T02:10:18;19.70;;;3.45;;
36575;SDS011;45700;50.930;5.168;2023-05-27T02:14:19;12.38;;;3.30;;
36575;SDS011;45700;50.930;5.168;2023-05-27T02:18:20;16.60;;;3.40;;
36575;SDS011;45700;50.930;5.168;2023-05-27T02:22:22;11.15;;;3.22;;
36575;SDS011;45700;50.930;5.168;2023-05-27T02:26:23;18.70;;;4.72;;
36575;SDS011;45700;50.930;5.168;2023-05-27T02:30:25;11.07;;;2.88;;
36575;SDS011;45700;50.930;5.168;2023-05-27T02:34:27;13.52;;;3.28;;
36575;SDS011;45700;50.930;5.168;2023-05-27T02:38:28;15.55;;;3.83;;
36575;SDS011;45700;50.930;5.168;2023-05-27T02:42:29;16.55;;;4.20;;
36575;SDS011;45700;50.930;5.168;2023-05-27T02:46:30;17.52;;;3.33;;
36575;SDS011;45700;50.930;5.168;2023-05-27T02:50:31;13.55;;;3.25;;
36575;SDS011;45700;50.930;5.168;2023-05-27T02:54:32;17.30;;;3.78;;
36575;SDS011;45700;50.930;5.168;2023-05-27T02:58:33;10.65;;;3.95;;
36575;SDS011;45700;50.930;5.168;2023-05-27T03:02:34;15.30;;;3.90;;
36575;SDS011;45700;50.930;5.168;2023-05-27T03:06:35;19.58;;;3.50;;
36575;SDS011;45700;50.930;5.168;2023-05-27T03:10:36;10.57;;;3.63;;
36575;SDS011;45700;50.930;5.168;2023-05-27T03:14:37;10.18;;;3.17;;
36575;SDS011;45700;50.930;5.168;2023-05-27T03:18:38;16.20;;;3.83;;
36575;SDS011;45700;50.930;5.168;2023-05-27T03:22:39;16.38;;;3.65;;
36575;SDS011;45700;50.930;5.168;2023-05-27T03:26:40;16.95;;;3.50;;
36575;SDS011;45700;50.930;5.168;2023-05-27T03:30:41;17.10;;;3.75;;
36575;SDS011;45700;50.930;5.168;2023-05-27T03:34:43;8.40;;;3.65;;
36575;SDS011;45700;50.930;5.168;2023-05-27T03:38:44;22.40;;;3.63;;
36575;SDS011;45700;50.930;5.168;2023-05-27T03:42:45;22.42;;;4.25;;
36575;SDS011;45700;50.930;5.168;2023-05-27T03:46:46;15.00;;;3.90;;
36575;SDS011;45700;50.930;5.168;2023-05-27T03:50:47;17.63;;;4.95;;
36575;SDS011;45700;50.930;5.168;2023-05-27T03:54:48;16.27;;;4.40;;
36575;SDS011;45700;50.930;5.168;2023-05-27T03:58:49;23.90;;;4.15;;
36575;SDS011;45700;50.930;5.168;2023-05-27T04:02:50;23.10;;;4.13;;
36575;SDS011;45700;50.930;5.168;2023-05-27T04:06:51;18.92;;;4.15;;
36575;SDS011;45700;50.930;5.168;2023-05-27T04:10:55;17.00;;;4.55;;
36575;SDS011;45700;50.930;5.168;2023-05-27T04:14:56;17.17;;;3.55;;
36575;SDS011;45700;50.930;5.168;2023-05-27T04:18:57;15.35;;;4.78;;
36575;SDS011;45700;50.930;5.168;2023-05-27T04:22:59;17.95;;;4.00;;
36575;SDS011;45700;50.930;5.168;2023-05-27T04:27:00;17.92;;;5.70;;
36575;SDS011;45700;50.930;5.168;2023-05-27T04:31:02;14.00;;;4.80;;
36575;SDS011;45700;50.930;5.168;2023-05-27T04:35:06;21.83;;;5.18;;
36575;SDS011;45700;50.930;5.168;2023-05-27T04:39:09;18.88;;;4.50;;
36575;SDS011;45700;50.930;5.168;2023-05-27T04:43:11;13.80;;;4.05;;
36575;SDS011;45700;50.930;5.168;2023-05-27T04:47:14;25.10;;;4.75;;
36575;SDS011;45700;50.930;5.168;2023-05-27T04:51:15;13.23;;;4.10;;
36575;SDS011;45700;50.930;5.168;2023-05-27T04:55:17;17.55;;;5.68;;
36575;SDS011;45700;50.930;5.168;2023-05-27T04:59:18;19.70;;;5.20;;
36575;SDS011;45700;50.930;5.168;2023-05-27T05:03:21;18.45;;;5.00;;
36575;SDS011;45700;50.930;5.168;2023-05-27T05:07:36;16.35;;;4.68;;
36575;SDS011;45700;50.930;5.168;2023-05-27T05:11:38;19.83;;;4.95;;
36575;SDS011;45700;50.930;5.168;2023-05-27T05:15:39;15.70;;;4.80;;
36575;SDS011;45700;50.930;5.168;2023-05-27T05:19:40;35.83;;;5.22;;
36575;SDS011;45700;50.930;5.168;2023-05-27T05:23:41;15.15;;;5.93;;
36575;SDS011;45700;50.930;5.168;2023-05-27T05:27:42;11.82;;;4.00;;
36575;SDS011;45700;50.930;5.168;2023-05-27T05:31:43;15.60;;;4.65;;
36575;SDS011;45700;50.930;5.168;2023-05-27T05:35:45;19.30;;;4.72;;
36575;SDS011;45700;50.930;5.168;2023-05-27T05:39:46;13.43;;;4.32;;
36575;SDS011;45700;50.930;5.168;2023-05-27T05:43:47;16.23;;;4.95;;
36575;SDS011;45700;50.930;5.168;2023-05-27T05:47:48;12.50;;;4.55;;
36575;SDS011;45700;50.930;5.168;2023-05-27T05:51:49;16.48;;;4.68;;
36575;SDS011;45700;50.930;5.168;2023-05-27T05:55:50;19.20;;;5.13;;
36575;SDS011;45700;50.930;5.168;2023-05-27T05:59:51;14.95;;;5.00;;
36575;SDS011;45700;50.930;5.168;2023-05-27T06:03:52;16.50;;;4.32;;
36575;SDS011;45700;50.930;5.168;2023-05-27T06:07:53;16.92;;;4.43;;
36575;SDS011;45700;50.930;5.168;2023-05-27T06:11:55;21.02;;;4.90;;
36575;SDS011;45700;50.930;5.168;2023-05-27T06:15:55;17.92;;;4.68;;
36575;SDS011;45700;50.930;5.168;2023-05-27T06:19:56;18.63;;;5.25;;
36575;SDS011;45700;50.930;5.168;2023-05-27T06:23:58;18.23;;;4.47;;
36575;SDS011;45700;50.930;5.168;2023-05-27T06:27:59;17.83;;;4.47;;
36575;SDS011;45700;50.930;5.168;2023-05-27T06:32:00;16.52;;;4.38;;
36575;SDS011;45700;50.930;5.168;2023-05-27T06:36:02;16.73;;;5.13;;
36575;SDS011;45700;50.930;5.168;2023-05-27T06:40:03;13.98;;;4.82;;
36575;SDS011;45700;50.930;5.168;2023-05-27T06:44:04;18.10;;;4.43;;
36575;SDS011;45700;50.930;5.168;2023-05-27T06:48:05;16.55;;;4.57;;
36575;SDS011;45700;50.930;5.168;2023-05-27T06:52:07;19.30;;;4.55;;
36575;SDS011;45700;50.930;5.168;2023-05-27T06:56:08;20.98;;;5.47;;
36575;SDS011;45700;50.930;5.168;2023-05-27T07:00:09;21.98;;;4.75;;
36575;SDS011;45700;50.930;5.168;2023-05-27T07:04:10;19.08;;;4.43;;
36575;SDS011;45700;50.930;5.168;2023-05-27T07:08:12;15.40;;;4.32;;
36575;SDS011;45700;50.930;5.168;2023-05-27T07:12:13;15.77;;;4.03;;
36575;SDS011;45700;50.930;5.168;2023-05-27T07:16:15;17.20;;;4.63;;
36575;SDS011;45700;50.930;5.168;2023-05-27T07:20:16;16.13;;;4.45;;
36575;SDS011;45700;50.930;5.168;2023-05-27T07:24:17;16.25;;;4.45;;
36575;SDS011;45700;50.930;5.168;2023-05-27T07:28:18;17.20;;;5.07;;
36575;SDS011;45700;50.930;5.168;2023-05-27T07:32:19;20.85;;;4.35;;
36575;SDS011;45700;50.930;5.168;2023-05-27T07:36:22;18.00;;;4.15;;
36575;SDS011;45700;50.930;5.168;2023-05-27T07:40:23;13.00;;;4.00;;
36575;SDS011;45700;50.930;5.168;2023-05-27T07:44:24;19.63;;;4.68;;
36575;SDS011;45700;50.930;5.168;2023-05-27T07:48:27;21.17;;;4.28;;
36575;SDS011;45700;50.930;5.168;2023-05-27T07:52:28;24.50;;;4.65;;
36575;SDS011;45700;50.930;5.168;2023-05-27T07:56:29;19.58;;;4.43;;
36575;SDS011;45700;50.930;5.168;2023-05-27T08:00:30;13.88;;;4.30;;
36575;SDS011;45700;50.930;5.168;2023-05-27T08:04:32;13.75;;;4.07;;
36575;SDS011;45700;50.930;5.168;2023-05-27T08:08:33;17.25;;;3.72;;
36575;SDS011;45700;50.930;5.168;2023-05-27T08:12:34;18.60;;;3.72;;
36575;SDS011;45700;50.930;5.168;2023-05-27T08:16:35;17.08;;;3.55;;
36575;SDS011;45700;50.930;5.168;2023-05-27T08:20:36;20.00;;;3.92;;
36575;SDS011;45700;50.930;5.168;2023-05-27T08:24:37;15.38;;;3.20;;
36575;SDS011;45700;50.930;5.168;2023-05-27T08:28:38;22.13;;;4.43;;
36575;SDS011;45700;50.930;5.168;2023-05-27T08:32:40;11.05;;;3.78;;
36575;SDS011;45700;50.930;5.168;2023-05-27T08:36:42;21.42;;;4.65;;
36575;SDS011;45700;50.930;5.168;2023-05-27T08:40:43;17.67;;;4.63;;
36575;SDS011;45700;50.930;5.168;2023-05-27T08:44:44;16.75;;;3.38;;
36575;SDS011;45700;50.930;5.168;2023-05-27T08:48:46;14.15;;;2.97;;
36575;SDS011;45700;50.930;5.168;2023-05-27T08:52:48;16.63;;;3.70;;
36575;SDS011;45700;50.930;5.168;2023-05-27T08:56:50;16.90;;;3.58;;
36575;SDS011;45700;50.930;5.168;2023-05-27T09:00:53;15.95;;;3.75;;
36575;SDS011;45700;50.930;5.168;2023-05-27T09:04:55;14.65;;;3.42;;
36575;SDS011;45700;50.930;5.168;2023-05-27T09:08:56;18.58;;;3.92;;
36575;SDS011;45700;50.930;5.168;2023-05-27T09:12:57;12.60;;;3.35;;
36575;SDS011;45700;50.930;5.168;2023-05-27T09:17:04;12.82;;;3.58;;
36575;SDS011;45700;50.930;5.168;2023-05-27T09:21:05;14.95;;;3.55;;
36575;SDS011;45700;50.930;5.168;2023-05-27T09:25:07;10.55;;;3.60;;
36575;SDS011;45700;50.930;5.168;2023-05-27T09:29:08;8.18;;;2.72;;
36575;SDS011;45700;50.930;5.168;2023-05-27T09:33:09;18.30;;;3.33;;
36575;SDS011;45700;50.930;5.168;2023-05-27T09:37:13;16.00;;;3.33;;
36575;SDS011;45700;50.930;5.168;2023-05-27T09:41:14;20.30;;;3.72;;
36575;SDS011;45700;50.930;5.168;2023-05-27T09:45:16;11.70;;;3.35;;
36575;SDS011;45700;50.930;5.168;2023-05-27T09:49:18;8.48;;;3.03;;
36575;SDS011;45700;50.930;5.168;2023-05-27T09:53:20;19.08;;;3.08;;
36575;SDS011;45700;50.930;5.168;2023-05-27T09:57:24;14.95;;;3.20;;
36575;SDS011;45700;50.930;5.168;2023-05-27T10:01:28;14.68;;;3.00;;
36575;SDS011;45700;50.930;5.168;2023-05-27T10:05:29;21.05;;;3.70;;
36575;SDS011;45700;50.930;5.168;2023-05-27T10:09:30;11.15;;;2.70;;
36575;SDS011;45700;50.930;5.168;2023-05-27T10:13:31;10.20;;;2.63;;
36575;SDS011;45700;50.930;5.168;2023-05-27T10:17:46;12.80;;;2.53;;
36575;SDS011;45700;50.930;5.168;2023-05-27T10:21:47;13.63;;;2.95;;
36575;SDS011;45700;50.930;5.168;2023-05-27T10:25:49;11.80;;;2.70;;
36575;SDS011;45700;50.930;5.168;2023-05-27T10:29:56;12.90;;;2.78;;
36575;SDS011;45700;50.930;5.168;2023-05-27T10:33:58;9.00;;;2.88;;
36575;SDS011;45700;50.930;5.168;2023-05-27T10:37:59;12.52;;;2.80;;
36575;SDS011;45700;50.930;5.168;2023-05-27T10:42:01;11.25;;;3.25;;
36575;SDS011;45700;50.930;5.168;2023-05-27T10:46:09;10.82;;;2.38;;
36575;SDS011;45700;50.930;5.168;2023-05-27T10:50:11;12.13;;;2.60;;
36575;SDS011;45700;50.930;5.168;2023-05-27T10:54:12;7.15;;;2.25;;
36575;SDS011;45700;50.930;5.168;2023-05-27T10:58:16;14.15;;;2.58;;
36575;SDS011;45700;50.930;5.168;2023-05-27T11:02:17;8.43;;;2.42;;
36575;SDS011;45700;50.930;5.168;2023-05-27T11:06:18;12.27;;;2.63;;
36575;SDS011;45700;50.930;5.168;2023-05-27T11:10:20;12.05;;;2.40;;
36575;SDS011;45700;50.930;5.168;2023-05-27T11:14:21;15.27;;;3.28;;
36575;SDS011;45700;50.930;5.168;2023-05-27T11:18:22;14.02;;;2.25;;
36575;SDS011;45700;50.930;5.168;2023-05-27T11:22:24;9.68;;;2.30;;
36575;SDS011;45700;50.930;5.168;2023-05-27T11:26:25;14.63;;;2.17;;
36575;SDS011;45700;50.930;5.168;2023-05-27T11:30:26;11.25;;;2.38;;
36575;SDS011;45700;50.930;5.168;2023-05-27T11:34:27;12.93;;;2.55;;
36575;SDS011;45700;50.930;5.168;2023-05-27T11:38:28;10.38;;;2.75;;
36575;SDS011;45700;50.930;5.168;2023-05-27T11:42:30;8.70;;;2.33;;
36575;SDS011;45700;50.930;5.168;2023-05-27T11:46:34;13.40;;;2.67;;
36575;SDS011;45700;50.930;5.168;2023-05-27T11:50:35;11.73;;;2.72;;
36575;SDS011;45700;50.930;5.168;2023-05-27T11:54:37;9.75;;;2.42;;
36575;SDS011;45700;50.930;5.168;2023-05-27T11:58:38;11.55;;;2.63;;
36575;SDS011;45700;50.930;5.168;2023-05-27T12:02:39;10.52;;;2.40;;
36575;SDS011;45700;50.930;5.168;2023-05-27T12:06:41;8.85;;;3.03;;
36575;SDS011;45700;50.930;5.168;2023-05-27T12:10:43;13.40;;;2.40;;
36575;SDS011;45700;50.930;5.168;2023-05-27T12:14:46;7.93;;;2.47;;
36575;SDS011;45700;50.930;5.168;2023-05-27T12:18:47;10.85;;;2.30;;
36575;SDS011;45700;50.930;5.168;2023-05-27T12:22:48;9.05;;;2.65;;
36575;SDS011;45700;50.930;5.168;2023-05-27T12:26:49;9.23;;;2.60;;
36575;SDS011;45700;50.930;5.168;2023-05-27T12:30:50;11.20;;;2.50;;
36575;SDS011;45700;50.930;5.168;2023-05-27T12:34:51;20.45;;;3.13;;
36575;SDS011;45700;50.930;5.168;2023-05-27T12:38:52;12.55;;;2.25;;
36575;SDS011;45700;50.930;5.168;2023-05-27T12:42:53;10.45;;;2.58;;
36575;SDS011;45700;50.930;5.168;2023-05-27T12:46:54;6.55;;;2.20;;
36575;SDS011;45700;50.930;5.168;2023-05-27T12:50:55;6.60;;;2.10;;
36575;SDS011;45700;50.930;5.168;2023-05-27T12:54:56;9.90;;;2.97;;
36575;SDS011;45700;50.930;5.168;2023-05-27T12:58:57;9.50;;;2.17;;
36575;SDS011;45700;50.930;5.168;2023-05-27T13:02:58;8.65;;;1.88;;
36575;SDS011;45700;50.930;5.168;2023-05-27T13:06:59;7.78;;;2.35;;
36575;SDS011;45700;50.930;5.168;2023-05-27T13:11:00;9.35;;;2.45;;
36575;SDS011;45700;50.930;5.168;2023-05-27T13:15:01;6.72;;;2.10;;
36575;SDS011;45700;50.930;5.168;2023-05-27T13:19:06;15.20;;;2.80;;
36575;SDS011;45700;50.930;5.168;2023-05-27T13:23:07;8.68;;;2.08;;
36575;SDS011;45700;50.930;5.168;2023-05-27T13:27:08;5.82;;;2.05;;
36575;SDS011;45700;50.930;5.168;2023-05-27T13:31:09;6.70;;;2.00;;
36575;SDS011;45700;50.930;5.168;2023-05-27T13:35:11;11.30;;;2.20;;
36575;SDS011;45700;50.930;5.168;2023-05-27T13:39:13;13.20;;;2.63;;
36575;SDS011;45700;50.930;5.168;2023-05-27T13:43:15;6.13;;;2.17;;
36575;SDS011;45700;50.930;5.168;2023-05-27T13:47:16;9.75;;;2.15;;
36575;SDS011;45700;50.930;5.168;2023-05-27T13:51:17;9.55;;;2.10;;
36575;SDS011;45700;50.930;5.168;2023-05-27T13:55:18;10.07;;;3.00;;
36575;SDS011;45700;50.930;5.168;2023-05-27T13:59:19;7.55;;;1.90;;
36575;SDS011;45700;50.930;5.168;2023-05-27T14:03:20;9.90;;;2.63;;
36575;SDS011;45700;50.930;5.168;2023-05-27T14:07:22;8.20;;;2.08;;
36575;SDS011;45700;50.930;5.168;2023-05-27T14:11:24;13.73;;;2.00;;
36575;SDS011;45700;50.930;5.168;2023-05-27T14:15:25;9.55;;;2.30;;
36575;SDS011;45700;50.930;5.168;2023-05-27T14:19:28;10.15;;;2.13;;
36575;SDS011;45700;50.930;5.168;2023-05-27T14:23:29;7.18;;;2.53;;
36575;SDS011;45700;50.930;5.168;2023-05-27T14:27:30;10.32;;;2.33;;
36575;SDS011;45700;50.930;5.168;2023-05-27T14:31:31;7.90;;;2.35;;
36575;SDS011;45700;50.930;5.168;2023-05-27T14:35:35;10.10;;;2.10;;
36575;SDS011;45700;50.930;5.168;2023-05-27T14:39:36;8.57;;;2.60;;
36575;SDS011;45700;50.930;5.168;2023-05-27T14:43:37;8.35;;;2.30;;
36575;SDS011;45700;50.930;5.168;2023-05-27T14:47:38;9.07;;;2.55;;
36575;SDS011;45700;50.930;5.168;2023-05-27T14:51:40;6.60;;;2.88;;
36575;SDS011;45700;50.930;5.168;2023-05-27T14:55:41;6.47;;;2.28;;
36575;SDS011;45700;50.930;5.168;2023-05-27T14:59:41;14.05;;;2.95;;
36575;SDS011;45700;50.930;5.168;2023-05-27T15:03:42;6.93;;;2.13;;
36575;SDS011;45700;50.930;5.168;2023-05-27T15:07:43;8.82;;;2.03;;
36575;SDS011;45700;50.930;5.168;2023-05-27T15:11:44;5.05;;;2.45;;
36575;SDS011;45700;50.930;5.168;2023-05-27T15:15:45;7.50;;;2.42;;
36575;SDS011;45700;50.930;5.168;2023-05-27T15:19:46;8.23;;;2.30;;
36575;SDS011;45700;50.930;5.168;2023-05-27T15:23:48;6.93;;;2.55;;
36575;SDS011;45700;50.930;5.168;2023-05-27T15:27:48;6.88;;;2.28;;
36575;SDS011;45700;50.930;5.168;2023-05-27T15:31:50;10.05;;;1.70;;
36575;SDS011;45700;50.930;5.168;2023-05-27T15:35:51;7.70;;;2.40;;
36575;SDS011;45700;50.930;5.168;2023-05-27T15:39:52;7.90;;;2.03;;
36575;SDS011;45700;50.930;5.168;2023-05-27T15:43:53;6.93;;;2.65;;
36575;SDS011;45700;50.930;5.168;2023-05-27T15:47:54;7.85;;;1.80;;
36575;SDS011;45700;50.930;5.168;2023-05-27T15:51:55;8.77;;;2.33;;
36575;SDS011;45700;50.930;5.168;2023-05-27T15:55:56;10.55;;;2.47;;
36575;SDS011;45700;50.930;5.168;2023-05-27T15:59:57;9.40;;;2.92;;
36575;SDS011;45700;50.930;5.168;2023-05-27T16:03:58;12.20;;;2.67;;
36575;SDS011;45700;50.930;5.168;2023-05-27T16:07:59;8.88;;;2.33;;
36575;SDS011;45700;50.930;5.168;2023-05-27T16:12:00;13.60;;;2.25;;
36575;SDS011;45700;50.930;5.168;2023-05-27T16:16:01;14.00;;;2.60;;
36575;SDS011;45700;50.930;5.168;2023-05-27T16:20:02;11.65;;;2.63;;
36575;SDS011;45700;50.930;5.168;2023-05-27T16:24:04;10.73;;;2.63;;
36575;SDS011;45700;50.930;5.168;2023-05-27T16:28:05;6.70;;;2.45;;
36575;SDS011;45700;50.930;5.168;2023-05-27T16:32:06;11.50;;;3.30;;
36575;SDS011;45700;50.930;5.168;2023-05-27T16:36:07;11.85;;;2.67;;
36575;SDS011;45700;50.930;5.168;2023-05-27T16:40:08;7.65;;;2.58;;
36575;SDS011;45700;50.930;5.168;2023-05-27T16:44:10;9.65;;;2.50;;
36575;SDS011;45700;50.930;5.168;2023-05-27T16:48:11;4.32;;;2.45;;
36575;SDS011;45700;50.930;5.168;2023-05-27T16:52:12;8.45;;;1.88;;
36575;SDS011;45700;50.930;5.168;2023-05-27T16:56:13;6.53;;;2.60;;
36575;SDS011;45700;50.930;5.168;2023-05-27T17:00:14;6.05;;;2.03;;
36575;SDS011;45700;50.930;5.168;2023-05-27T17:04:15;10.57;;;2.53;;
36575;SDS011;45700;50.930;5.168;2023-05-27T17:08:16;13.13;;;2.40;;
36575;SDS011;45700;50.930;5.168;2023-05-27T17:12:18;8.75;;;2.55;;
36575;SDS011;45700;50.930;5.168;2023-05-27T17:16:19;12.25;;;2.10;;
36575;SDS011;45700;50.930;5.168;2023-05-27T17:20:20;11.27;;;2.13;;
36575;SDS011;45700;50.930;5.168;2023-05-27T17:24:21;7.68;;;2.10;;
36575;SDS011;45700;50.930;5.168;2023-05-27T17:28:22;8.75;;;2.58;;
36575;SDS011;45700;50.930;5.168;2023-05-27T17:32:23;10.15;;;2.42;;
36575;SDS011;45700;50.930;5.168;2023-05-27T17:36:25;11.38;;;2.65;;
36575;SDS011;45700;50.930;5.168;2023-05-27T17:40:26;5.55;;;2.00;;
36575;SDS011;45700;50.930;5.168;2023-05-27T17:44:27;8.23;;;2.28;;
36575;SDS011;45700;50.930;5.168;2023-05-27T17:48:28;10.48;;;2.15;;
36575;SDS011;45700;50.930;5.168;2023-05-27T17:52:29;6.43;;;1.98;;
36575;SDS011;45700;50.930;5.168;2023-05-27T17:56:30;6.18;;;1.92;;
36575;SDS011;45700;50.930;5.168;2023-05-27T18:00:31;10.40;;;2.10;;
36575;SDS011;45700;50.930;5.168;2023-05-27T18:04:32;7.93;;;2.17;;
36575;SDS011;45700;50.930;5.168;2023-05-27T18:08:33;11.18;;;2.78;;
36575;SDS011;45700;50.930;5.168;2023-05-27T18:12:34;8.77;;;2.53;;
36575;SDS011;45700;50.930;5.168;2023-05-27T18:16:35;10.55;;;2.05;;
36575;SDS011;45700;50.930;5.168;2023-05-27T18:20:37;9.98;;;2.33;;
36575;SDS011;45700;50.930;5.168;2023-05-27T18:24:38;5.15;;;2.13;;
36575;SDS011;45700;50.930;5.168;2023-05-27T18:28:39;7.82;;;2.00;;
36575;SDS011;45700;50.930;5.168;2023-05-27T18:32:46;9.40;;;2.65;;
36575;SDS011;45700;50.930;5.168;2023-05-27T18:36:47;7.13;;;2.35;;
36575;SDS011;45700;50.930;5.168;2023-05-27T18:40:48;5.95;;;2.25;;
36575;SDS011;45700;50.930;5.168;2023-05-27T18:44:49;7.55;;;2.65;;
36575;SDS011;45700;50.930;5.168;2023-05-27T18:48:50;11.63;;;2.60;;
36575;SDS011;45700;50.930;5.168;2023-05-27T18:52:51;10.63;;;2.38;;
36575;SDS011;45700;50.930;5.168;2023-05-27T18:56:52;8.30;;;2.50;;
36575;SDS011;45700;50.930;5.168;2023-05-27T19:00:53;5.88;;;2.95;;
36575;SDS011;45700;50.930;5.168;2023-05-27T19:04:54;6.75;;;2.08;;
36575;SDS011;45700;50.930;5.168;2023-05-27T19:08:55;4.88;;;2.22;;
36575;SDS011;45700;50.930;5.168;2023-05-27T19:12:58;6.13;;;2.08;;
36575;SDS011;45700;50.930;5.168;2023-05-27T19:17:00;10.77;;;2.63;;
36575;SDS011;45700;50.930;5.168;2023-05-27T19:21:01;11.40;;;2.53;;
36575;SDS011;45700;50.930;5.168;2023-05-27T19:25:02;16.17;;;2.65;;
36575;SDS011;45700;50.930;5.168;2023-05-27T19:29:03;9.63;;;2.65;;
36575;SDS011;45700;50.930;5.168;2023-05-27T19:33:04;8.75;;;2.33;;
36575;SDS011;45700;50.930;5.168;2023-05-27T19:37:05;10.18;;;2.97;;
36575;SDS011;45700;50.930;5.168;2023-05-27T19:41:06;6.93;;;2.90;;
36575;SDS011;45700;50.930;5.168;2023-05-27T19:45:07;13.75;;;3.10;;
36575;SDS011;45700;50.930;5.168;2023-05-27T19:49:08;10.55;;;2.67;;
36575;SDS011;45700;50.930;5.168;2023-05-27T19:53:10;6.82;;;2.40;;
36575;SDS011;45700;50.930;5.168;2023-05-27T19:57:11;10.18;;;2.53;;
36575;SDS011;45700;50.930;5.168;2023-05-27T20:01:12;8.27;;;3.70;;
36575;SDS011;45700;50.930;5.168;2023-05-27T20:05:13;11.02;;;2.78;;
36575;SDS011;45700;50.930;5.168;2023-05-27T20:09:14;9.95;;;3.33;;
36575;SDS011;45700;50.930;5.168;2023-05-27T20:13:15;8.10;;;2.40;;
36575;SDS011;45700;50.930;5.168;2023-05-27T20:17:16;9.48;;;2.92;;
36575;SDS011;45700;50.930;5.168;2023-05-27T20:21:17;8.43;;;3.00;;
36575;SDS011;45700;50.930;5.168;2023-05-27T20:25:21;7.63;;;2.28;;
36575;SDS011;45700;50.930;5.168;2023-05-27T20:29:22;7.47;;;2.72;;
36575;SDS011;45700;50.930;5.168;2023-05-27T20:33:23;8.00;;;2.97;;
36575;SDS011;45700;50.930;5.168;2023-05-27T20:37:24;10.52;;;3.00;;
36575;SDS011;45700;50.930;5.168;2023-05-27T20:41:25;9.85;;;2.83;;
36575;SDS011;45700;50.930;5.168;2023-05-27T20:45:26;5.00;;;2.42;;
36575;SDS011;45700;50.930;5.168;2023-05-27T20:49:28;12.23;;;2.70;;
36575;SDS011;45700;50.930;5.168;2023-05-27T20:53:31;13.25;;;3.40;;
36575;SDS011;45700;50.930;5.168;2023-05-27T20:57:32;11.50;;;2.80;;
36575;SDS011;45700;50.930;5.168;2023-05-27T21:01:33;10.02;;;3.33;;
36575;SDS011;45700;50.930;5.168;2023-05-27T21:05:34;9.52;;;3.13;;
36575;SDS011;45700;50.930;5.168;2023-05-27T21:09:38;7.10;;;3.35;;
36575;SDS011;45700;50.930;5.168;2023-05-27T21:13:39;12.18;;;3.70;;
36575;SDS011;45700;50.930;5.168;2023-05-27T21:17:40;9.75;;;2.78;;
36575;SDS011;45700;50.930;5.168;2023-05-27T21:21:41;9.30;;;3.17;;
36575;SDS011;45700;50.930;5.168;2023-05-27T21:25:42;11.90;;;3.05;;
36575;SDS011;45700;50.930;5.168;2023-05-27T21:29:43;10.07;;;3.28;;
36575;SDS011;45700;50.930;5.168;2023-05-27T21:33:44;11.60;;;3.55;;
36575;SDS011;45700;50.930;5.168;2023-05-27T21:37:45;16.60;;;4.20;;
36575;SDS011;45700;50.930;5.168;2023-05-27T21:41:46;9.45;;;2.80;;
36575;SDS011;45700;50.930;5.168;2023-05-27T21:45:47;8.80;;;3.05;;
36575;SDS011;45700;50.930;5.168;2023-05-27T21:49:48;10.10;;;3.10;;
36575;SDS011;45700;50.930;5.168;2023-05-27T21:53:49;11.70;;;3.50;;
36575;SDS011;45700;50.930;5.168;2023-05-27T21:57:50;9.13;;;4.22;;
36575;SDS011;45700;50.930;5.168;2023-05-27T22:01:51;9.60;;;3.20;;
36575;SDS011;45700;50.930;5.168;2023-05-27T22:05:52;11.95;;;3.55;;
36575;SDS011;45700;50.930;5.168;2023-05-27T22:09:53;10.65;;;3.65;;
36575;SDS011;45700;50.930;5.168;2023-05-27T22:13:54;7.70;;;3.50;;
36575;SDS011;45700;50.930;5.168;2023-05-27T22:17:55;10.93;;;3.53;;
36575;SDS011;45700;50.930;5.168;2023-05-27T22:21:56;14.23;;;3.83;;
36575;SDS011;45700;50.930;5.168;2023-05-27T22:25:57;7.53;;;3.40;;
36575;SDS011;45700;50.930;5.168;2023-05-27T22:29:58;14.30;;;3.70;;
36575;SDS011;45700;50.930;5.168;2023-05-27T22:33:59;11.63;;;3.30;;
36575;SDS011;45700;50.930;5.168;2023-05-27T22:38:00;7.75;;;3.22;;
36575;SDS011;45700;50.930;5.168;2023-05-27T22:42:02;11.90;;;3.67;;
36575;SDS011;45700;50.930;5.168;2023-05-27T22:46:03;9.88;;;3.22;;
36575;SDS011;45700;50.930;5.168;2023-05-27T22:50:05;10.77;;;2.88;;
36575;SDS011;45700;50.930;5.168;2023-05-27T22:54:06;11.35;;;3.17;;
36575;SDS011;45700;50.930;5.168;2023-05-27T22:58:07;8.43;;;3.28;;
36575;SDS011;45700;50.930;5.168;2023-05-27T23:02:08;14.05;;;4.35;;
36575;SDS011;45700;50.930;5.168;2023-05-27T23:06:09;14.32;;;3.30;;
36575;SDS011;45700;50.930;5.168;2023-05-27T23:10:10;15.23;;;4.15;;
36575;SDS011;45700;50.930;5.168;2023-05-27T23:14:11;13.80;;;3.67;;
36575;SDS011;45700;50.930;5.168;2023-05-27T23:18:13;11.63;;;3.38;;
36575;SDS011;45700;50.930;5.168;2023-05-27T23:22:14;12.73;;;3.67;;
36575;SDS011;45700;50.930;5.168;2023-05-27T23:26:15;13.50;;;3.60;;
36575;SDS011;45700;50.930;5.168;2023-05-27T23:30:16;11.93;;;4.10;;
36575;SDS011;45700;50.930;5.168;2023-05-27T23:34:17;11.68;;;3.50;;
36575;SDS011;45700;50.930;5.168;2023-05-27T23:38:19;13.48;;;3.58;;
36575;SDS011;45700;50.930;5.168;2023-05-27T23:42:20;18.52;;;4.05;;
36575;SDS011;45700;50.930;5.168;2023-05-27T23:46:21;12.43;;;4.03;;
36575;SDS011;45700;50.930;5.168;2023-05-27T23:50:22;8.32;;;3.33;;
36575;SDS011;45700;50.930;5.168;2023-05-27T23:54:23;14.68;;;4.18;;
36575;SDS011;45700;50.930;5.168;2023-05-27T23:58:25;11.93;;;4.05;;
